createdAt,value
2018-04-07T00:00:29.270Z,8.37
2018-04-07T00:02:55.061Z,8.37
2018-04-07T00:05:20.850Z,8.38
2018-04-07T00:07:46.653Z,8.42
2018-04-07T00:10:12.435Z,8.20
2018-04-07T00:12:38.215Z,8.35
2018-04-07T00:15:04.012Z,8.36
2018-04-07T00:17:29.820Z,8.18
2018-04-07T00:19:55.627Z,8.14
2018-04-07T00:22:21.452Z,8.15
2018-04-07T00:24:47.275Z,8.14
2018-04-07T00:27:13.083Z,8.25
2018-04-07T00:29:38.879Z,8.22
2018-04-07T00:32:04.698Z,8.11
2018-04-07T00:34:30.510Z,8.28
2018-04-07T00:36:56.327Z,8.14
2018-04-07T00:39:22.144Z,8.22
2018-04-07T00:41:47.940Z,8.48
2018-04-07T00:44:13.730Z,8.39
2018-04-07T00:46:39.533Z,8.46
2018-04-07T00:49:05.332Z,8.48
2018-04-07T00:51:31.123Z,9.12
2018-04-07T00:53:57.053Z,9.52
2018-04-07T00:56:22.840Z,8.91
2018-04-07T00:58:48.632Z,8.43
2018-04-07T01:01:14.466Z,8.39
2018-04-07T01:03:40.247Z,8.36
2018-04-07T01:06:06.054Z,9.25
2018-04-07T01:08:31.864Z,9.00
2018-04-07T01:10:57.667Z,9.10
2018-04-07T01:13:23.475Z,9.25
2018-04-07T01:15:49.300Z,9.57
2018-04-07T01:18:15.099Z,9.87
2018-04-07T01:20:40.896Z,9.50
2018-04-07T01:23:06.698Z,9.05
2018-04-07T01:25:32.487Z,8.98
2018-04-07T01:27:58.300Z,9.03
2018-04-07T01:30:24.087Z,8.20
2018-04-07T01:32:49.885Z,8.24
2018-04-07T01:35:15.695Z,8.01
2018-04-07T01:37:41.515Z,8.03
2018-04-07T01:40:07.318Z,8.13
2018-04-07T01:42:33.171Z,7.84
2018-04-07T01:44:58.951Z,8.02
2018-04-07T01:47:24.755Z,7.86
2018-04-07T01:49:50.559Z,7.85
2018-04-07T01:52:16.354Z,7.76
2018-04-07T01:54:42.173Z,7.79
2018-04-07T01:57:07.970Z,7.81
2018-04-07T01:59:33.755Z,7.71
2018-04-07T02:01:59.556Z,7.63
2018-04-07T02:04:25.375Z,7.53
2018-04-07T02:06:51.194Z,7.60
2018-04-07T02:09:16.983Z,7.58
2018-04-07T02:11:42.766Z,7.62
2018-04-07T02:14:08.575Z,7.60
2018-04-07T02:16:34.396Z,7.58
2018-04-07T02:19:00.207Z,7.46
2018-04-07T02:21:26.008Z,7.50
2018-04-07T02:23:51.786Z,7.35
2018-04-07T02:26:17.597Z,7.45
2018-04-07T02:28:43.394Z,7.35
2018-04-07T02:31:09.179Z,7.44
2018-04-07T02:33:35.018Z,7.45
2018-04-07T02:36:00.815Z,7.43
2018-04-07T02:38:26.587Z,7.34
2018-04-07T02:40:52.392Z,7.41
2018-04-07T02:43:18.222Z,7.31
2018-04-07T02:45:44.015Z,7.33
2018-04-07T02:48:10.208Z,7.33
2018-04-07T02:50:36.025Z,7.23
2018-04-07T02:53:01.851Z,7.27
2018-04-07T02:55:27.647Z,7.17
2018-04-07T02:57:53.443Z,7.15
2018-04-07T03:00:19.228Z,7.16
2018-04-07T03:02:45.043Z,7.11
2018-04-07T03:05:10.821Z,7.07
2018-04-07T03:07:36.607Z,7.13
2018-04-07T03:10:02.470Z,7.03
2018-04-07T03:12:28.245Z,7.04
2018-04-07T03:14:54.030Z,6.93
2018-04-07T03:17:19.839Z,6.92
2018-04-07T03:19:45.618Z,6.91
2018-04-07T03:22:11.460Z,6.96
2018-04-07T03:24:37.258Z,6.98
2018-04-07T03:27:03.055Z,6.94
2018-04-07T03:29:28.839Z,6.93
2018-04-07T03:31:54.718Z,6.79
2018-04-07T03:34:20.526Z,6.77
2018-04-07T03:36:46.322Z,6.71
2018-04-07T03:39:12.143Z,6.67
2018-04-07T03:41:37.924Z,6.66
2018-04-07T03:44:03.721Z,6.64
2018-04-07T03:46:29.567Z,6.75
2018-04-07T03:48:55.381Z,6.68
2018-04-07T03:51:21.194Z,6.67
2018-04-07T03:53:47.296Z,6.57
2018-04-07T03:56:13.099Z,6.70
2018-04-07T03:58:38.891Z,6.64
2018-04-07T04:01:04.747Z,6.67
2018-04-07T04:03:30.585Z,6.58
2018-04-07T04:05:56.603Z,6.39
2018-04-07T04:08:22.414Z,6.55
2018-04-07T04:10:48.217Z,6.57
2018-04-07T04:13:14.011Z,6.53
2018-04-07T04:15:39.803Z,6.53
2018-04-07T04:18:05.879Z,6.51
2018-04-07T04:20:31.679Z,6.52
2018-04-07T04:22:57.467Z,6.49
2018-04-07T04:25:23.262Z,6.45
2018-04-07T04:27:49.069Z,6.48
2018-04-07T04:30:14.855Z,6.39
2018-04-07T04:32:40.647Z,6.44
2018-04-07T04:35:06.430Z,6.44
2018-04-07T04:37:32.236Z,6.48
2018-04-07T04:39:58.257Z,6.39
2018-04-07T04:42:24.074Z,6.37
2018-04-07T04:44:49.856Z,6.46
2018-04-07T04:47:15.659Z,6.49
2018-04-07T04:49:41.450Z,6.46
2018-04-07T04:52:07.255Z,6.38
2018-04-07T04:54:33.062Z,6.45
2018-04-07T04:56:58.843Z,6.53
2018-04-07T04:59:25.008Z,6.32
2018-04-07T05:01:50.820Z,6.36
2018-04-07T05:04:16.606Z,6.36
2018-04-07T05:06:42.402Z,6.36
2018-04-07T05:09:08.186Z,6.49
2018-04-07T05:11:33.966Z,6.52
2018-04-07T05:13:59.767Z,6.44
2018-04-07T05:16:25.577Z,6.38
2018-04-07T05:18:51.527Z,6.43
2018-04-07T05:21:17.683Z,6.43
2018-04-07T05:23:43.496Z,6.48
2018-04-07T05:26:09.288Z,6.62
2018-04-07T05:28:35.100Z,6.54
2018-04-07T05:31:01.020Z,6.53
2018-04-07T05:33:26.859Z,6.41
2018-04-07T05:35:52.654Z,6.49
2018-04-07T05:38:18.475Z,6.55
2018-04-07T05:40:44.275Z,6.63
2018-04-07T05:43:10.068Z,6.61
2018-04-07T05:45:36.480Z,6.57
2018-04-07T05:48:09.338Z,6.56
2018-04-07T05:50:35.311Z,6.68
2018-04-07T05:53:01.135Z,6.75
2018-04-07T05:55:26.960Z,6.67
2018-04-07T05:57:52.769Z,6.66
2018-04-07T06:00:18.592Z,6.83
2018-04-07T06:02:45.299Z,6.84
2018-04-07T06:05:11.173Z,6.96
2018-04-07T06:07:36.984Z,7.21
2018-04-07T06:10:02.814Z,7.14
2018-04-07T06:12:30.447Z,7.12
2018-04-07T06:14:56.376Z,7.19
2018-04-07T06:17:22.207Z,7.18
2018-04-07T06:19:48.035Z,7.24
2018-04-07T06:22:13.871Z,7.18
2018-04-07T06:24:40.172Z,7.29
2018-04-07T06:27:07.991Z,7.30
2018-04-07T06:29:33.817Z,7.38
2018-04-07T06:31:59.746Z,7.50
2018-04-07T06:34:25.572Z,7.50
2018-04-07T06:36:53.339Z,7.62
2018-04-07T06:39:20.440Z,7.66
2018-04-07T06:41:46.890Z,7.72
2018-04-07T06:44:13.401Z,7.83
2018-04-07T06:46:39.531Z,7.89
2018-04-07T06:49:05.700Z,8.03
2018-04-07T06:51:33.466Z,8.09
2018-04-07T06:53:59.520Z,8.19
2018-04-07T06:56:25.600Z,8.29
2018-04-07T06:58:51.481Z,8.42
2018-04-07T07:01:17.580Z,8.48
2018-04-07T07:03:43.689Z,8.58
2018-04-07T07:06:09.521Z,8.69
2018-04-07T07:08:35.363Z,8.78
2018-04-07T07:11:01.191Z,8.85
2018-04-07T07:13:26.979Z,9.02
2018-04-07T07:15:52.759Z,9.09
2018-04-07T07:18:18.602Z,9.15
2018-04-07T07:20:44.416Z,9.26
2018-04-07T07:23:10.212Z,9.31
2018-04-07T07:25:36.045Z,9.38
2018-04-07T07:28:01.832Z,9.53
2018-04-07T07:30:27.622Z,9.64
2018-04-07T07:32:53.614Z,9.73
2018-04-07T07:35:19.411Z,9.73
2018-04-07T07:37:45.211Z,9.88
2018-04-07T07:40:11.008Z,9.98
2018-04-07T07:42:36.823Z,10.11
2018-04-07T07:45:02.648Z,10.22
2018-04-07T07:47:28.454Z,10.14
2018-04-07T07:49:54.258Z,10.24
2018-04-07T07:52:20.051Z,10.37
2018-04-07T07:54:45.869Z,10.43
2018-04-07T07:57:11.674Z,10.49
2018-04-07T07:59:37.464Z,10.61
2018-04-07T08:02:03.296Z,10.75
2018-04-07T08:04:29.120Z,10.73
2018-04-07T08:06:54.920Z,10.68
2018-04-07T08:09:21.055Z,10.81
2018-04-07T08:11:46.842Z,10.84
2018-04-07T08:14:12.641Z,10.98
2018-04-07T08:16:38.437Z,10.97
2018-04-07T08:19:04.233Z,11.02
2018-04-07T08:21:30.051Z,10.89
2018-04-07T08:23:55.827Z,11.14
2018-04-07T08:26:21.616Z,11.23
2018-04-07T08:28:47.425Z,11.21
2018-04-07T08:31:13.232Z,11.33
2018-04-07T08:33:39.032Z,11.53
2018-04-07T08:36:04.814Z,11.65
2018-04-07T08:38:30.652Z,11.76
2018-04-07T08:40:56.471Z,11.80
2018-04-07T08:43:22.256Z,11.80
2018-04-07T08:45:48.060Z,11.93
2018-04-07T08:48:13.841Z,11.95
2018-04-07T08:50:39.655Z,12.04
2018-04-07T08:53:05.442Z,12.02
2018-04-07T08:55:31.374Z,12.25
2018-04-07T08:57:57.186Z,12.28
2018-04-07T09:00:22.994Z,12.34
2018-04-07T09:02:48.791Z,12.43
2018-04-07T09:05:14.607Z,12.50
2018-04-07T09:07:40.402Z,12.66
2018-04-07T09:10:06.193Z,12.77
2018-04-07T09:12:32.022Z,12.93
2018-04-07T09:14:57.803Z,12.78
2018-04-07T09:17:23.591Z,12.91
2018-04-07T09:19:49.425Z,12.98
2018-04-07T09:22:15.214Z,13.17
2018-04-07T09:24:41.001Z,13.13
2018-04-07T09:27:06.820Z,13.28
2018-04-07T09:29:32.606Z,13.37
2018-04-07T09:31:58.396Z,13.68
2018-04-07T09:34:24.228Z,13.67
2018-04-07T09:36:50.019Z,13.92
2018-04-07T09:39:15.829Z,14.02
2018-04-07T09:41:41.649Z,13.94
2018-04-07T09:44:07.456Z,14.10
2018-04-07T09:46:33.264Z,14.20
2018-04-07T09:48:59.077Z,14.25
2018-04-07T09:51:24.863Z,14.44
2018-04-07T09:53:50.923Z,14.30
2018-04-07T09:56:16.714Z,14.53
2018-04-07T09:58:42.518Z,14.38
2018-04-07T10:01:08.355Z,14.19
2018-04-07T10:03:34.155Z,14.50
2018-04-07T10:05:59.940Z,14.60
2018-04-07T10:08:25.760Z,14.55
2018-04-07T10:10:51.557Z,14.79
2018-04-07T10:13:17.343Z,14.97
2018-04-07T10:15:43.154Z,14.91
2018-04-07T10:18:08.937Z,14.73
2018-04-07T10:20:34.732Z,15.01
2018-04-07T10:23:00.536Z,15.16
2018-04-07T10:25:26.358Z,15.31
2018-04-07T10:27:52.148Z,15.51
2018-04-07T10:30:17.971Z,15.23
2018-04-07T10:32:43.783Z,14.94
2018-04-07T10:35:09.570Z,14.98
2018-04-07T10:37:35.363Z,15.24
2018-04-07T10:40:01.137Z,15.54
2018-04-07T10:42:26.950Z,15.21
2018-04-07T10:44:52.741Z,15.33
2018-04-07T10:47:18.567Z,15.48
2018-04-07T10:49:44.354Z,15.46
2018-04-07T10:52:10.151Z,15.31
2018-04-07T10:54:36.193Z,15.25
2018-04-07T10:57:02.002Z,15.49
2018-04-07T10:59:27.782Z,15.61
2018-04-07T11:01:53.595Z,15.90
2018-04-07T11:04:19.376Z,16.06
2018-04-07T11:06:45.173Z,16.03
2018-04-07T11:09:10.985Z,15.83
2018-04-07T11:11:36.778Z,15.73
2018-04-07T11:14:02.588Z,15.92
2018-04-07T11:16:28.386Z,16.05
2018-04-07T11:21:26.827Z,16.29
2018-04-07T11:23:52.627Z,16.16
2018-04-07T11:26:18.447Z,16.11
2018-04-07T11:28:44.259Z,15.94
2018-04-07T11:31:10.046Z,16.09
2018-04-07T11:33:35.858Z,15.90
2018-04-07T11:36:01.652Z,16.30
2018-04-07T11:38:27.455Z,16.46
2018-04-07T11:40:53.247Z,16.44
2018-04-07T11:43:19.276Z,16.36
2018-04-07T11:45:45.058Z,16.38
2018-04-07T11:48:10.875Z,16.62
2018-04-07T11:50:36.716Z,16.57
2018-04-07T11:53:02.522Z,16.58
2018-04-07T11:55:28.308Z,16.68
2018-04-07T11:57:54.122Z,17.01
2018-04-07T12:00:19.923Z,17.09
2018-04-07T12:02:45.726Z,17.05
2018-04-07T12:05:11.521Z,17.18
2018-04-07T12:07:37.319Z,17.26
2018-04-07T12:10:03.259Z,17.35
2018-04-07T12:12:29.053Z,17.37
2018-04-07T12:14:54.873Z,17.66
2018-04-07T12:17:20.695Z,17.62
2018-04-07T12:19:46.499Z,18.06
2018-04-07T12:22:12.306Z,17.61
2018-04-07T12:24:38.337Z,18.01
2018-04-07T12:27:04.142Z,18.44
2018-04-07T12:29:29.926Z,18.50
2018-04-07T12:31:55.746Z,18.15
2018-04-07T12:34:21.539Z,18.25
2018-04-07T12:36:47.326Z,18.91
2018-04-07T12:39:13.157Z,18.86
2018-04-07T12:41:38.950Z,18.91
2018-04-07T12:44:04.767Z,18.78
2018-04-07T12:46:30.592Z,18.96
2018-04-07T12:48:56.373Z,20.08
2018-04-07T12:51:22.163Z,20.41
2018-04-07T12:53:48.070Z,20.64
2018-04-07T12:56:13.871Z,20.10
2018-04-07T12:58:39.677Z,21.03
2018-04-07T13:01:05.488Z,20.55
2018-04-07T13:03:31.304Z,20.64
2018-04-07T13:05:57.095Z,20.50
2018-04-07T13:08:22.893Z,20.84
2018-04-07T13:10:48.679Z,21.08
2018-04-07T13:13:14.557Z,20.86
2018-04-07T13:15:40.349Z,20.04
2018-04-07T13:18:06.135Z,19.65
2018-04-07T13:20:31.981Z,20.95
2018-04-07T13:22:57.784Z,20.72
2018-04-07T13:25:23.586Z,21.70
2018-04-07T13:27:49.375Z,21.48
2018-04-07T13:30:15.162Z,21.38
2018-04-07T13:32:40.943Z,22.05
2018-04-07T13:35:06.779Z,22.24
2018-04-07T13:37:32.582Z,21.29
2018-04-07T13:39:58.371Z,21.22
2018-04-07T13:42:24.159Z,21.38
2018-04-07T13:44:50.024Z,21.89
2018-04-07T13:47:15.831Z,21.21
2018-04-07T13:49:41.642Z,22.06
2018-04-07T13:52:07.424Z,22.03
2018-04-07T13:54:33.223Z,22.59
2018-04-07T13:56:59.060Z,22.41
2018-04-07T13:59:24.859Z,22.19
2018-04-07T14:01:50.646Z,21.89
2018-04-07T14:04:16.427Z,20.92
2018-04-07T14:06:42.221Z,21.04
2018-04-07T14:09:08.048Z,22.00
2018-04-07T14:11:33.855Z,22.46
2018-04-07T14:13:59.668Z,21.52
2018-04-07T14:16:25.461Z,21.16
2018-04-07T14:18:51.281Z,21.50
2018-04-07T14:21:17.079Z,21.03
2018-04-07T14:23:42.900Z,21.18
2018-04-07T14:26:08.690Z,21.09
2018-04-07T14:28:34.518Z,21.52
2018-04-07T14:31:00.323Z,21.56
2018-04-07T14:33:26.119Z,21.47
2018-04-07T14:35:51.907Z,22.14
2018-04-07T14:38:17.706Z,21.38
2018-04-07T14:40:43.506Z,20.65
2018-04-07T14:43:09.301Z,20.41
2018-04-07T14:45:35.119Z,20.13
2018-04-07T14:48:00.900Z,20.23
2018-04-07T14:50:26.693Z,20.38
2018-04-07T14:52:52.507Z,20.28
2018-04-07T14:55:18.320Z,20.23
2018-04-07T14:57:44.113Z,20.53
2018-04-07T15:00:09.907Z,20.59
2018-04-07T15:02:35.708Z,20.45
2018-04-07T15:05:01.519Z,20.02
2018-04-07T15:07:27.330Z,19.91
2018-04-07T15:09:53.141Z,20.04
2018-04-07T15:12:18.926Z,19.86
2018-04-07T15:14:44.765Z,20.13
2018-04-07T15:17:10.572Z,20.17
2018-04-07T15:19:36.364Z,20.04
2018-04-07T15:22:02.173Z,20.30
2018-04-07T15:24:27.983Z,20.29
2018-04-07T15:26:53.819Z,21.26
2018-04-07T15:29:19.623Z,20.88
2018-04-07T15:31:45.419Z,20.73
2018-04-07T15:34:11.231Z,20.47
2018-04-07T15:36:37.063Z,20.04
2018-04-07T15:39:02.898Z,20.29
2018-04-07T15:41:28.679Z,20.56
2018-04-07T15:43:54.466Z,20.50
2018-04-07T15:46:20.257Z,20.52
2018-04-07T15:48:46.060Z,20.30
2018-04-07T15:51:11.856Z,20.24
2018-04-07T15:53:37.662Z,19.96
2018-04-07T15:56:03.472Z,19.83
2018-04-07T15:58:30.078Z,19.99
2018-04-07T16:00:56.145Z,20.05
2018-04-07T16:03:21.933Z,20.06
2018-04-07T16:05:47.760Z,20.13
2018-04-07T16:08:13.580Z,20.15
2018-04-07T16:10:39.386Z,20.01
2018-04-07T16:13:05.198Z,20.10
2018-04-07T16:15:30.980Z,20.13
2018-04-07T16:17:56.773Z,20.11
2018-04-07T16:20:22.603Z,20.22
2018-04-07T16:22:48.399Z,20.04
2018-04-07T16:25:14.237Z,19.93
2018-04-07T16:27:40.016Z,19.64
2018-04-07T16:30:05.842Z,19.77
2018-04-07T16:32:31.902Z,19.75
2018-04-07T16:34:57.719Z,19.68
2018-04-07T16:37:23.536Z,19.57
2018-04-07T16:39:49.456Z,19.50
2018-04-07T16:42:15.239Z,19.41
2018-04-07T16:44:41.033Z,19.42
2018-04-07T16:47:06.828Z,19.36
2018-04-07T16:49:32.631Z,19.30
2018-04-07T16:51:58.452Z,19.19
2018-04-07T16:54:24.230Z,19.11
2018-04-07T16:56:50.078Z,19.08
2018-04-07T16:59:15.870Z,18.93
2018-04-07T17:01:41.667Z,18.83
2018-04-07T17:04:07.531Z,18.85
2018-04-07T17:06:33.364Z,18.79
2018-04-07T17:08:59.165Z,18.62
2018-04-07T17:11:24.958Z,18.64
2018-04-07T17:13:51.004Z,18.69
2018-04-07T17:16:16.804Z,18.52
2018-04-07T17:18:42.628Z,18.44
2018-04-07T17:21:08.447Z,18.41
2018-04-07T17:23:34.251Z,18.37
2018-04-07T17:26:00.027Z,18.37
2018-04-07T17:28:25.843Z,18.29
2018-04-07T17:30:51.617Z,18.27
2018-04-07T17:33:17.435Z,18.21
2018-04-07T17:35:43.467Z,18.16
2018-04-07T17:38:09.256Z,18.05
2018-04-07T17:40:35.051Z,18.00
2018-04-07T17:43:00.858Z,17.98
2018-04-07T17:45:26.667Z,17.93
2018-04-07T17:47:52.465Z,17.86
2018-04-07T17:50:18.291Z,17.81
2018-04-07T17:52:44.361Z,17.74
2018-04-07T17:55:10.183Z,17.69
2018-04-07T17:57:35.966Z,17.61
2018-04-07T18:00:01.790Z,17.55
2018-04-07T18:02:27.565Z,17.46
2018-04-07T18:04:53.397Z,17.40
2018-04-07T18:07:19.215Z,17.40
2018-04-07T18:09:45.024Z,17.40
2018-04-07T18:12:10.810Z,17.27
2018-04-07T18:14:36.635Z,17.21
2018-04-07T18:17:02.601Z,17.15
2018-04-07T18:19:28.410Z,17.07
2018-04-07T18:21:54.332Z,17.01
2018-04-07T18:24:20.148Z,16.95
2018-04-07T18:26:45.952Z,16.87
2018-04-07T18:29:11.754Z,16.85
2018-04-07T18:31:37.536Z,16.83
2018-04-07T18:34:03.344Z,16.80
2018-04-07T18:36:29.146Z,16.64
2018-04-07T18:38:54.944Z,16.67
2018-04-07T18:41:20.772Z,16.65
2018-04-07T18:43:46.575Z,16.60
2018-04-07T18:46:12.374Z,16.54
2018-04-07T18:48:38.167Z,16.49
2018-04-07T18:51:03.975Z,16.45
2018-04-07T18:53:29.773Z,16.43
2018-04-07T18:55:55.594Z,16.43
2018-04-07T18:58:21.420Z,16.41
2018-04-07T19:00:47.237Z,16.35
2018-04-07T19:03:13.058Z,16.32
2018-04-07T19:05:38.853Z,16.29
2018-04-07T19:08:04.672Z,16.24
2018-04-07T19:10:30.499Z,16.24
2018-04-07T19:12:56.296Z,16.19
2018-04-07T19:15:22.099Z,16.08
2018-04-07T19:17:48.752Z,16.05
2018-04-07T19:20:14.545Z,16.05
2018-04-07T19:22:40.341Z,16.03
2018-04-07T19:25:06.148Z,15.95
2018-04-07T19:27:31.936Z,15.88
2018-04-07T19:29:57.743Z,15.81
2018-04-07T19:32:23.568Z,15.79
2018-04-07T19:34:49.359Z,15.77
2018-04-07T19:37:15.183Z,15.73
2018-04-07T19:39:40.974Z,15.68
2018-04-07T19:42:06.790Z,15.66
2018-04-07T19:44:32.597Z,15.62
2018-04-07T19:46:58.387Z,15.59
2018-04-07T19:49:24.190Z,15.53
2018-04-07T19:51:50.022Z,15.51
2018-04-07T19:54:15.794Z,15.45
2018-04-07T19:56:41.589Z,15.41
2018-04-07T19:59:07.390Z,15.33
2018-04-07T20:01:33.174Z,15.23
2018-04-07T20:03:58.979Z,15.21
2018-04-07T20:06:24.794Z,15.14
2018-04-07T20:08:50.601Z,15.13
2018-04-07T20:11:16.393Z,15.09
2018-04-07T20:13:42.187Z,15.04
2018-04-07T20:16:08.016Z,15.00
2018-04-07T20:18:33.824Z,14.98
2018-04-07T20:20:59.631Z,14.91
2018-04-07T20:23:25.430Z,14.91
2018-04-07T20:25:51.247Z,14.89
2018-04-07T20:28:17.052Z,14.86
2018-04-07T20:30:42.836Z,14.85
2018-04-07T20:33:08.654Z,14.83
2018-04-07T20:35:34.463Z,14.73
2018-04-07T20:38:00.261Z,14.75
2018-04-07T20:40:26.342Z,14.71
2018-04-07T20:42:52.159Z,14.68
2018-04-07T20:45:17.960Z,14.68
2018-04-07T20:47:44.042Z,14.67
2018-04-07T20:50:09.828Z,14.57
2018-04-07T20:52:35.680Z,14.50
2018-04-07T20:55:01.497Z,14.50
2018-04-07T20:57:27.280Z,14.43
2018-04-07T20:59:53.077Z,14.43
2018-04-07T21:02:18.867Z,14.41
2018-04-07T21:04:44.673Z,14.37
2018-04-07T21:07:10.487Z,14.35
2018-04-07T21:09:36.294Z,14.31
2018-04-07T21:12:02.215Z,14.30
2018-04-07T21:14:28.045Z,14.25
2018-04-07T21:16:53.880Z,14.25
2018-04-07T21:19:19.671Z,14.22
2018-04-07T21:21:45.463Z,14.20
2018-04-07T21:24:11.271Z,15.15
2018-04-07T21:26:37.064Z,15.32
2018-04-07T21:29:02.869Z,15.48
2018-04-07T21:31:28.807Z,15.72
2018-04-07T21:33:54.621Z,15.18
2018-04-07T21:36:20.398Z,14.85
2018-04-07T21:38:46.195Z,14.69
2018-04-07T21:41:12.006Z,14.64
2018-04-07T21:43:37.804Z,14.54
2018-04-07T21:46:03.604Z,14.58
2018-04-07T21:48:29.424Z,14.49
2018-04-07T21:50:55.243Z,14.53
2018-04-07T21:53:21.043Z,14.46
2018-04-07T21:55:46.854Z,14.43
2018-04-07T21:58:12.654Z,14.34
2018-04-07T22:00:38.452Z,14.51
2018-04-07T22:03:04.263Z,14.56
2018-04-07T22:05:30.055Z,14.52
2018-04-07T22:07:55.840Z,14.63
2018-04-07T22:10:21.659Z,14.49
2018-04-07T22:12:47.480Z,14.38
2018-04-07T22:15:13.331Z,14.25
2018-04-07T22:17:39.165Z,14.24
2018-04-07T22:20:04.995Z,14.34
2018-04-07T22:22:30.844Z,14.36
2018-04-07T22:24:56.657Z,14.31
2018-04-07T22:27:22.461Z,14.23
2018-04-07T22:29:48.243Z,14.17
2018-04-07T22:32:14.041Z,14.09
2018-04-07T22:34:39.833Z,14.08
2018-04-07T22:37:05.733Z,14.06
2018-04-07T22:39:31.545Z,14.06
2018-04-07T22:41:57.373Z,14.18
2018-04-07T22:44:23.414Z,14.03
2018-04-07T22:46:49.225Z,14.01
2018-04-07T22:49:15.025Z,13.94
2018-04-07T22:51:40.820Z,13.99
2018-04-07T22:54:06.603Z,13.91
2018-04-07T22:56:32.399Z,14.01
2018-04-07T22:58:58.188Z,13.92
2018-04-07T23:01:23.992Z,13.82
2018-04-07T23:03:49.972Z,13.87
2018-04-07T23:06:15.760Z,13.91
2018-04-07T23:08:41.549Z,13.90
2018-04-07T23:11:07.347Z,13.95
2018-04-07T23:13:33.163Z,13.85
2018-04-07T23:15:58.962Z,13.78
2018-04-07T23:18:24.988Z,13.68
2018-04-07T23:20:50.809Z,13.72
2018-04-07T23:23:16.622Z,13.76
2018-04-07T23:25:42.675Z,13.75
2018-04-07T23:28:08.495Z,13.71
2018-04-07T23:30:34.310Z,13.62
2018-04-07T23:33:00.140Z,13.66
2018-04-07T23:35:25.932Z,13.56
2018-04-07T23:37:53.001Z,13.62
2018-04-07T23:40:19.988Z,13.56
2018-04-07T23:42:46.519Z,13.75
2018-04-07T23:45:13.744Z,13.71
2018-04-07T23:47:40.535Z,13.62
2018-04-07T23:50:07.159Z,13.59
2018-04-07T23:52:34.003Z,13.72
2018-04-07T23:55:00.604Z,13.67
2018-04-07T23:57:27.494Z,13.53
2018-04-07T23:59:53.403Z,13.54
